sensor_id;sensor_type;location;lat;lon;timestamp;P1;durP1;ratioP1;P2;durP2;ratioP2
41480;SDS011;27217;51.220;5.308;2022-08-02T00:00:22;4.63;;;1.70;;
41480;SDS011;27217;51.220;5.308;2022-08-02T00:02:48;3.78;;;1.88;;
41480;SDS011;27217;51.220;5.308;2022-08-02T00:05:14;8.02;;;2.10;;
41480;SDS011;27217;51.220;5.308;2022-08-02T00:07:40;4.20;;;2.53;;
41480;SDS011;27217;51.220;5.308;2022-08-02T00:10:07;6.93;;;2.05;;
41480;SDS011;27217;51.220;5.308;2022-08-02T00:12:34;6.95;;;2.55;;
41480;SDS011;27217;51.220;5.308;2022-08-02T00:15:00;6.43;;;2.08;;
41480;SDS011;27217;51.220;5.308;2022-08-02T00:17:26;4.40;;;1.90;;
41480;SDS011;27217;51.220;5.308;2022-08-02T00:19:52;3.97;;;2.03;;
41480;SDS011;27217;51.220;5.308;2022-08-02T00:22:18;4.18;;;2.30;;
41480;SDS011;27217;51.220;5.308;2022-08-02T00:24:44;13.02;;;2.22;;
41480;SDS011;27217;51.220;5.308;2022-08-02T00:27:10;3.75;;;2.17;;
41480;SDS011;27217;51.220;5.308;2022-08-02T00:29:37;5.85;;;2.08;;
41480;SDS011;27217;51.220;5.308;2022-08-02T00:32:04;5.35;;;2.60;;
41480;SDS011;27217;51.220;5.308;2022-08-02T00:34:30;6.90;;;2.10;;
41480;SDS011;27217;51.220;5.308;2022-08-02T00:36:55;7.43;;;2.55;;
41480;SDS011;27217;51.220;5.308;2022-08-02T00:39:21;5.07;;;2.38;;
41480;SDS011;27217;51.220;5.308;2022-08-02T00:41:50;9.95;;;2.33;;
41480;SDS011;27217;51.220;5.308;2022-08-02T00:44:17;6.88;;;3.00;;
41480;SDS011;27217;51.220;5.308;2022-08-02T00:46:44;5.68;;;2.45;;
41480;SDS011;27217;51.220;5.308;2022-08-02T00:49:11;4.75;;;1.95;;
41480;SDS011;27217;51.220;5.308;2022-08-02T00:51:39;4.90;;;2.40;;
41480;SDS011;27217;51.220;5.308;2022-08-02T00:54:06;6.00;;;2.10;;
41480;SDS011;27217;51.220;5.308;2022-08-02T00:56:33;5.82;;;1.85;;
41480;SDS011;27217;51.220;5.308;2022-08-02T00:58:59;5.20;;;1.60;;
41480;SDS011;27217;51.220;5.308;2022-08-02T01:01:25;8.90;;;2.90;;
41480;SDS011;27217;51.220;5.308;2022-08-02T01:04:07;2.92;;;1.90;;
41480;SDS011;27217;51.220;5.308;2022-08-02T01:06:36;4.72;;;2.20;;
41480;SDS011;27217;51.220;5.308;2022-08-02T01:09:04;5.03;;;2.35;;
41480;SDS011;27217;51.220;5.308;2022-08-02T01:11:31;5.38;;;2.20;;
41480;SDS011;27217;51.220;5.308;2022-08-02T01:13:59;4.60;;;2.35;;
41480;SDS011;27217;51.220;5.308;2022-08-02T01:16:31;3.95;;;1.88;;
41480;SDS011;27217;51.220;5.308;2022-08-02T01:19:09;7.38;;;2.13;;
41480;SDS011;27217;51.220;5.308;2022-08-02T01:30:10;9.15;;;2.28;;
41480;SDS011;27217;51.220;5.308;2022-08-02T01:32:40;5.88;;;2.10;;
41480;SDS011;27217;51.220;5.308;2022-08-02T01:35:10;6.78;;;2.30;;
41480;SDS011;27217;51.220;5.308;2022-08-02T01:40:43;4.15;;;2.22;;
41480;SDS011;27217;51.220;5.308;2022-08-02T01:43:10;6.50;;;2.28;;
41480;SDS011;27217;51.220;5.308;2022-08-02T01:45:38;4.22;;;1.60;;
41480;SDS011;27217;51.220;5.308;2022-08-02T01:48:06;4.63;;;1.70;;
41480;SDS011;27217;51.220;5.308;2022-08-02T01:50:33;1.70;;;1.60;;
41480;SDS011;27217;51.220;5.308;2022-08-02T01:53:04;11.00;;;2.05;;
41480;SDS011;27217;51.220;5.308;2022-08-02T01:55:40;6.35;;;2.25;;
41480;SDS011;27217;51.220;5.308;2022-08-02T01:58:09;6.57;;;2.17;;
41480;SDS011;27217;51.220;5.308;2022-08-02T02:00:38;7.60;;;2.15;;
41480;SDS011;27217;51.220;5.308;2022-08-02T02:03:12;5.82;;;2.20;;
41480;SDS011;27217;51.220;5.308;2022-08-02T02:05:43;3.97;;;2.17;;
41480;SDS011;27217;51.220;5.308;2022-08-02T02:08:17;4.07;;;2.22;;
41480;SDS011;27217;51.220;5.308;2022-08-02T02:10:48;4.72;;;1.92;;
41480;SDS011;27217;51.220;5.308;2022-08-02T02:13:16;7.38;;;1.77;;
41480;SDS011;27217;51.220;5.308;2022-08-02T02:15:45;6.13;;;2.30;;
41480;SDS011;27217;51.220;5.308;2022-08-02T02:18:25;6.05;;;2.28;;
41480;SDS011;27217;51.220;5.308;2022-08-02T02:20:53;7.35;;;2.28;;
41480;SDS011;27217;51.220;5.308;2022-08-02T02:23:20;7.75;;;1.98;;
41480;SDS011;27217;51.220;5.308;2022-08-02T02:25:47;11.48;;;2.30;;
41480;SDS011;27217;51.220;5.308;2022-08-02T02:30:47;5.25;;;1.83;;
41480;SDS011;27217;51.220;5.308;2022-08-02T02:33:18;13.20;;;1.92;;
41480;SDS011;27217;51.220;5.308;2022-08-02T02:35:46;7.73;;;1.77;;
41480;SDS011;27217;51.220;5.308;2022-08-02T02:38:17;8.13;;;1.73;;
41480;SDS011;27217;51.220;5.308;2022-08-02T02:40:45;5.20;;;1.48;;
41480;SDS011;27217;51.220;5.308;2022-08-02T02:43:12;7.00;;;2.30;;
41480;SDS011;27217;51.220;5.308;2022-08-02T02:45:38;5.85;;;1.90;;
41480;SDS011;27217;51.220;5.308;2022-08-02T02:48:06;5.97;;;2.00;;
41480;SDS011;27217;51.220;5.308;2022-08-02T02:50:34;8.63;;;2.45;;
41480;SDS011;27217;51.220;5.308;2022-08-02T02:53:02;7.32;;;1.98;;
41480;SDS011;27217;51.220;5.308;2022-08-02T02:55:28;4.57;;;2.00;;
41480;SDS011;27217;51.220;5.308;2022-08-02T02:57:56;4.18;;;1.55;;
41480;SDS011;27217;51.220;5.308;2022-08-02T03:00:22;13.27;;;1.98;;
41480;SDS011;27217;51.220;5.308;2022-08-02T03:03:07;6.45;;;2.10;;
41480;SDS011;27217;51.220;5.308;2022-08-02T03:05:35;4.13;;;1.95;;
41480;SDS011;27217;51.220;5.308;2022-08-02T03:08:01;3.30;;;1.65;;
41480;SDS011;27217;51.220;5.308;2022-08-02T03:10:27;2.45;;;1.80;;
41480;SDS011;27217;51.220;5.308;2022-08-02T03:12:54;7.65;;;2.10;;
41480;SDS011;27217;51.220;5.308;2022-08-02T03:15:20;6.25;;;2.15;;
41480;SDS011;27217;51.220;5.308;2022-08-02T03:17:48;4.32;;;2.10;;
41480;SDS011;27217;51.220;5.308;2022-08-02T03:20:14;7.82;;;2.00;;
41480;SDS011;27217;51.220;5.308;2022-08-02T03:22:43;7.45;;;2.92;;
41480;SDS011;27217;51.220;5.308;2022-08-02T03:25:09;12.07;;;2.60;;
41480;SDS011;27217;51.220;5.308;2022-08-02T03:27:36;5.35;;;1.65;;
41480;SDS011;27217;51.220;5.308;2022-08-02T03:30:03;4.53;;;2.00;;
41480;SDS011;27217;51.220;5.308;2022-08-02T03:32:31;5.35;;;2.20;;
41480;SDS011;27217;51.220;5.308;2022-08-02T03:34:58;5.30;;;1.92;;
41480;SDS011;27217;51.220;5.308;2022-08-02T03:37:24;6.70;;;2.08;;
41480;SDS011;27217;51.220;5.308;2022-08-02T03:39:50;5.82;;;2.55;;
41480;SDS011;27217;51.220;5.308;2022-08-02T03:42:19;4.10;;;2.17;;
41480;SDS011;27217;51.220;5.308;2022-08-02T03:44:46;3.85;;;2.05;;
41480;SDS011;27217;51.220;5.308;2022-08-02T03:47:13;4.32;;;2.17;;
41480;SDS011;27217;51.220;5.308;2022-08-02T03:49:40;8.57;;;2.67;;
41480;SDS011;27217;51.220;5.308;2022-08-02T03:52:08;5.63;;;2.25;;
41480;SDS011;27217;51.220;5.308;2022-08-02T03:54:34;8.57;;;2.88;;
41480;SDS011;27217;51.220;5.308;2022-08-02T03:57:00;11.50;;;2.92;;
41480;SDS011;27217;51.220;5.308;2022-08-02T03:59:27;9.32;;;3.33;;
41480;SDS011;27217;51.220;5.308;2022-08-02T04:01:53;7.38;;;2.85;;
41480;SDS011;27217;51.220;5.308;2022-08-02T04:04:18;6.93;;;2.40;;
41480;SDS011;27217;51.220;5.308;2022-08-02T04:06:47;9.63;;;2.97;;
41480;SDS011;27217;51.220;5.308;2022-08-02T04:09:13;8.52;;;3.00;;
41480;SDS011;27217;51.220;5.308;2022-08-02T04:11:39;9.68;;;2.85;;
41480;SDS011;27217;51.220;5.308;2022-08-02T04:14:06;6.93;;;3.45;;
41480;SDS011;27217;51.220;5.308;2022-08-02T04:16:36;13.23;;;3.15;;
41480;SDS011;27217;51.220;5.308;2022-08-02T04:19:03;6.88;;;2.90;;
41480;SDS011;27217;51.220;5.308;2022-08-02T04:21:34;7.15;;;3.53;;
41480;SDS011;27217;51.220;5.308;2022-08-02T04:24:02;8.15;;;3.60;;
41480;SDS011;27217;51.220;5.308;2022-08-02T04:26:30;4.68;;;2.72;;
41480;SDS011;27217;51.220;5.308;2022-08-02T04:28:58;5.47;;;3.42;;
41480;SDS011;27217;51.220;5.308;2022-08-02T04:31:25;7.47;;;3.70;;
41480;SDS011;27217;51.220;5.308;2022-08-02T04:33:51;6.40;;;2.72;;
41480;SDS011;27217;51.220;5.308;2022-08-02T04:36:18;15.68;;;3.75;;
41480;SDS011;27217;51.220;5.308;2022-08-02T04:38:44;11.50;;;3.60;;
41480;SDS011;27217;51.220;5.308;2022-08-02T04:41:13;6.78;;;3.67;;
41480;SDS011;27217;51.220;5.308;2022-08-02T04:43:39;9.20;;;3.92;;
41480;SDS011;27217;51.220;5.308;2022-08-02T04:46:05;10.02;;;4.55;;
41480;SDS011;27217;51.220;5.308;2022-08-02T04:48:31;12.32;;;3.60;;
41480;SDS011;27217;51.220;5.308;2022-08-02T04:50:57;7.88;;;4.47;;
41480;SDS011;27217;51.220;5.308;2022-08-02T04:53:23;10.65;;;4.53;;
41480;SDS011;27217;51.220;5.308;2022-08-02T04:55:49;14.70;;;4.53;;
41480;SDS011;27217;51.220;5.308;2022-08-02T04:58:14;16.17;;;4.72;;
41480;SDS011;27217;51.220;5.308;2022-08-02T05:00:40;9.82;;;4.85;;
41480;SDS011;27217;51.220;5.308;2022-08-02T05:03:07;9.80;;;5.20;;
41480;SDS011;27217;51.220;5.308;2022-08-02T05:05:36;11.13;;;4.70;;
41480;SDS011;27217;51.220;5.308;2022-08-02T05:08:02;14.65;;;4.72;;
41480;SDS011;27217;51.220;5.308;2022-08-02T05:10:28;5.55;;;4.45;;
41480;SDS011;27217;51.220;5.308;2022-08-02T05:12:54;13.88;;;4.78;;
41480;SDS011;27217;51.220;5.308;2022-08-02T05:15:20;7.90;;;4.40;;
41480;SDS011;27217;51.220;5.308;2022-08-02T05:17:46;11.82;;;4.72;;
41480;SDS011;27217;51.220;5.308;2022-08-02T05:20:12;11.70;;;4.38;;
41480;SDS011;27217;51.220;5.308;2022-08-02T05:22:39;9.05;;;5.55;;
41480;SDS011;27217;51.220;5.308;2022-08-02T05:25:06;10.75;;;5.25;;
41480;SDS011;27217;51.220;5.308;2022-08-02T05:27:33;11.60;;;4.80;;
41480;SDS011;27217;51.220;5.308;2022-08-02T05:29:59;12.13;;;5.13;;
41480;SDS011;27217;51.220;5.308;2022-08-02T05:32:25;10.27;;;5.07;;
41480;SDS011;27217;51.220;5.308;2022-08-02T05:34:50;9.27;;;4.68;;
41480;SDS011;27217;51.220;5.308;2022-08-02T05:37:16;9.73;;;4.70;;
41480;SDS011;27217;51.220;5.308;2022-08-02T05:39:42;9.85;;;4.53;;
41480;SDS011;27217;51.220;5.308;2022-08-02T05:42:08;9.45;;;5.32;;
41480;SDS011;27217;51.220;5.308;2022-08-02T05:44:35;9.43;;;5.35;;
41480;SDS011;27217;51.220;5.308;2022-08-02T05:47:01;9.10;;;4.95;;
41480;SDS011;27217;51.220;5.308;2022-08-02T05:49:27;6.80;;;4.38;;
41480;SDS011;27217;51.220;5.308;2022-08-02T05:52:00;11.18;;;5.75;;
41480;SDS011;27217;51.220;5.308;2022-08-02T05:57:04;7.18;;;4.82;;
41480;SDS011;27217;51.220;5.308;2022-08-02T06:02:30;12.80;;;5.55;;
41480;SDS011;27217;51.220;5.308;2022-08-02T06:05:06;12.32;;;6.00;;
41480;SDS011;27217;51.220;5.308;2022-08-02T06:07:40;10.48;;;5.95;;
41480;SDS011;27217;51.220;5.308;2022-08-02T06:10:09;10.07;;;5.15;;
41480;SDS011;27217;51.220;5.308;2022-08-02T06:12:53;10.88;;;6.28;;
41480;SDS011;27217;51.220;5.308;2022-08-02T06:15:36;11.23;;;7.28;;
41480;SDS011;27217;51.220;5.308;2022-08-02T06:18:04;12.63;;;7.18;;
41480;SDS011;27217;51.220;5.308;2022-08-02T06:20:32;14.30;;;7.97;;
41480;SDS011;27217;51.220;5.308;2022-08-02T06:23:04;16.67;;;7.72;;
41480;SDS011;27217;51.220;5.308;2022-08-02T06:25:33;16.02;;;9.27;;
41480;SDS011;27217;51.220;5.308;2022-08-02T06:28:04;17.33;;;8.73;;
41480;SDS011;27217;51.220;5.308;2022-08-02T06:30:31;28.10;;;8.63;;
41480;SDS011;27217;51.220;5.308;2022-08-02T06:32:58;15.90;;;10.23;;
41480;SDS011;27217;51.220;5.308;2022-08-02T06:35:25;13.68;;;8.10;;
41480;SDS011;27217;51.220;5.308;2022-08-02T06:38:17;15.38;;;8.13;;
41480;SDS011;27217;51.220;5.308;2022-08-02T06:40:47;12.25;;;7.93;;
41480;SDS011;27217;51.220;5.308;2022-08-02T06:46:15;17.77;;;7.90;;
41480;SDS011;27217;51.220;5.308;2022-08-02T06:48:41;20.17;;;7.55;;
41480;SDS011;27217;51.220;5.308;2022-08-02T06:51:06;16.80;;;8.20;;
41480;SDS011;27217;51.220;5.308;2022-08-02T06:53:32;12.07;;;6.80;;
41480;SDS011;27217;51.220;5.308;2022-08-02T06:55:58;16.73;;;7.13;;
41480;SDS011;27217;51.220;5.308;2022-08-02T06:58:24;14.82;;;7.68;;
41480;SDS011;27217;51.220;5.308;2022-08-02T07:00:49;12.10;;;6.72;;
41480;SDS011;27217;51.220;5.308;2022-08-02T07:03:16;10.20;;;6.22;;
41480;SDS011;27217;51.220;5.308;2022-08-02T07:05:42;10.75;;;4.80;;
41480;SDS011;27217;51.220;5.308;2022-08-02T07:08:12;12.00;;;5.07;;
41480;SDS011;27217;51.220;5.308;2022-08-02T07:10:41;9.70;;;4.72;;
41480;SDS011;27217;51.220;5.308;2022-08-02T07:13:07;12.10;;;5.13;;
41480;SDS011;27217;51.220;5.308;2022-08-02T07:15:34;9.35;;;4.38;;
41480;SDS011;27217;51.220;5.308;2022-08-02T07:18:03;6.75;;;4.28;;
41480;SDS011;27217;51.220;5.308;2022-08-02T07:20:30;9.35;;;4.40;;
41480;SDS011;27217;51.220;5.308;2022-08-02T07:22:56;7.30;;;3.75;;
41480;SDS011;27217;51.220;5.308;2022-08-02T07:25:22;7.30;;;4.18;;
41480;SDS011;27217;51.220;5.308;2022-08-02T07:27:48;8.77;;;3.50;;
41480;SDS011;27217;51.220;5.308;2022-08-02T07:30:14;3.78;;;3.38;;
41480;SDS011;27217;51.220;5.308;2022-08-02T07:32:40;5.80;;;3.30;;
41480;SDS011;27217;51.220;5.308;2022-08-02T07:35:06;4.90;;;3.72;;
41480;SDS011;27217;51.220;5.308;2022-08-02T07:37:33;5.30;;;3.13;;
41480;SDS011;27217;51.220;5.308;2022-08-02T07:40:00;6.88;;;2.97;;
41480;SDS011;27217;51.220;5.308;2022-08-02T07:42:26;5.68;;;2.90;;
41480;SDS011;27217;51.220;5.308;2022-08-02T07:44:53;5.55;;;3.03;;
41480;SDS011;27217;51.220;5.308;2022-08-02T07:47:19;5.40;;;2.88;;
41480;SDS011;27217;51.220;5.308;2022-08-02T07:49:45;7.78;;;3.17;;
41480;SDS011;27217;51.220;5.308;2022-08-02T07:52:11;7.63;;;2.70;;
41480;SDS011;27217;51.220;5.308;2022-08-02T07:54:37;5.03;;;2.15;;
41480;SDS011;27217;51.220;5.308;2022-08-02T07:57:02;8.10;;;2.55;;
41480;SDS011;27217;51.220;5.308;2022-08-02T07:59:28;7.70;;;2.78;;
41480;SDS011;27217;51.220;5.308;2022-08-02T08:01:54;3.17;;;2.42;;
41480;SDS011;27217;51.220;5.308;2022-08-02T08:04:20;2.50;;;2.17;;
41480;SDS011;27217;51.220;5.308;2022-08-02T08:06:46;4.95;;;2.67;;
41480;SDS011;27217;51.220;5.308;2022-08-02T08:09:16;4.43;;;2.37;;
41480;SDS011;27217;51.220;5.308;2022-08-02T08:11:43;8.80;;;2.50;;
41480;SDS011;27217;51.220;5.308;2022-08-02T08:14:09;2.17;;;1.95;;
41480;SDS011;27217;51.220;5.308;2022-08-02T08:16:36;5.53;;;2.35;;
41480;SDS011;27217;51.220;5.308;2022-08-02T08:19:02;3.45;;;2.63;;
41480;SDS011;27217;51.220;5.308;2022-08-02T08:21:28;3.55;;;2.70;;
41480;SDS011;27217;51.220;5.308;2022-08-02T08:23:54;6.68;;;2.40;;
41480;SDS011;27217;51.220;5.308;2022-08-02T08:26:20;7.63;;;3.08;;
41480;SDS011;27217;51.220;5.308;2022-08-02T08:28:46;3.85;;;2.78;;
41480;SDS011;27217;51.220;5.308;2022-08-02T08:31:12;6.32;;;2.97;;
41480;SDS011;27217;51.220;5.308;2022-08-02T08:33:38;4.40;;;2.45;;
41480;SDS011;27217;51.220;5.308;2022-08-02T08:36:04;12.18;;;2.83;;
41480;SDS011;27217;51.220;5.308;2022-08-02T08:38:31;5.10;;;3.20;;
41480;SDS011;27217;51.220;5.308;2022-08-02T08:40:57;2.08;;;1.88;;
41480;SDS011;27217;51.220;5.308;2022-08-02T08:43:22;8.43;;;2.25;;
41480;SDS011;27217;51.220;5.308;2022-08-02T08:45:48;4.72;;;2.53;;
41480;SDS011;27217;51.220;5.308;2022-08-02T08:48:15;5.72;;;2.78;;
41480;SDS011;27217;51.220;5.308;2022-08-02T08:50:50;3.45;;;1.90;;
41480;SDS011;27217;51.220;5.308;2022-08-02T08:53:22;7.15;;;2.38;;
41480;SDS011;27217;51.220;5.308;2022-08-02T08:55:51;6.93;;;2.63;;
41480;SDS011;27217;51.220;5.308;2022-08-02T08:58:20;2.55;;;2.25;;
41480;SDS011;27217;51.220;5.308;2022-08-02T09:00:46;2.42;;;2.08;;
41480;SDS011;27217;51.220;5.308;2022-08-02T09:03:13;4.45;;;2.65;;
41480;SDS011;27217;51.220;5.308;2022-08-02T09:05:39;6.63;;;3.15;;
41480;SDS011;27217;51.220;5.308;2022-08-02T09:08:06;3.47;;;2.53;;
41480;SDS011;27217;51.220;5.308;2022-08-02T09:13:08;5.65;;;1.92;;
41480;SDS011;27217;51.220;5.308;2022-08-02T09:15:42;4.60;;;1.92;;
41480;SDS011;27217;51.220;5.308;2022-08-02T09:18:10;9.15;;;2.20;;
41480;SDS011;27217;51.220;5.308;2022-08-02T09:20:55;3.38;;;2.22;;
41480;SDS011;27217;51.220;5.308;2022-08-02T09:23:23;3.40;;;2.17;;
41480;SDS011;27217;51.220;5.308;2022-08-02T09:28:42;3.20;;;2.20;;
41480;SDS011;27217;51.220;5.308;2022-08-02T09:31:14;2.03;;;1.73;;
41480;SDS011;27217;51.220;5.308;2022-08-02T09:33:45;3.35;;;1.85;;
41480;SDS011;27217;51.220;5.308;2022-08-02T09:36:26;6.43;;;2.17;;
41480;SDS011;27217;51.220;5.308;2022-08-02T09:39:03;3.40;;;1.75;;
41480;SDS011;27217;51.220;5.308;2022-08-02T09:41:32;3.67;;;1.83;;
41480;SDS011;27217;51.220;5.308;2022-08-02T09:43:59;3.20;;;1.95;;
41480;SDS011;27217;51.220;5.308;2022-08-02T09:46:31;4.15;;;2.05;;
41480;SDS011;27217;51.220;5.308;2022-08-02T09:49:01;2.47;;;1.65;;
41480;SDS011;27217;51.220;5.308;2022-08-02T09:51:33;2.45;;;1.65;;
41480;SDS011;27217;51.220;5.308;2022-08-02T09:54:02;5.70;;;2.08;;
41480;SDS011;27217;51.220;5.308;2022-08-02T09:57:06;2.08;;;1.88;;
41480;SDS011;27217;51.220;5.308;2022-08-02T09:59:26;6.80;;;1.63;;
41480;SDS011;27217;51.220;5.308;2022-08-02T10:01:53;2.78;;;1.60;;
41480;SDS011;27217;51.220;5.308;2022-08-02T10:04:21;2.45;;;1.77;;
41480;SDS011;27217;51.220;5.308;2022-08-02T10:06:50;2.55;;;1.77;;
41480;SDS011;27217;51.220;5.308;2022-08-02T10:09:17;4.53;;;1.80;;
41480;SDS011;27217;51.220;5.308;2022-08-02T10:11:44;2.78;;;1.80;;
41480;SDS011;27217;51.220;5.308;2022-08-02T10:14:10;4.43;;;2.03;;
41480;SDS011;27217;51.220;5.308;2022-08-02T10:16:38;2.50;;;1.80;;
41480;SDS011;27217;51.220;5.308;2022-08-02T10:19:05;3.80;;;2.05;;
41480;SDS011;27217;51.220;5.308;2022-08-02T10:21:33;2.97;;;2.22;;
41480;SDS011;27217;51.220;5.308;2022-08-02T10:24:12;2.00;;;1.52;;
41480;SDS011;27217;51.220;5.308;2022-08-02T10:26:41;4.85;;;1.52;;
41480;SDS011;27217;51.220;5.308;2022-08-02T10:29:09;3.70;;;1.80;;
41480;SDS011;27217;51.220;5.308;2022-08-02T10:31:41;2.42;;;1.50;;
41480;SDS011;27217;51.220;5.308;2022-08-02T10:34:11;1.70;;;1.60;;
41480;SDS011;27217;51.220;5.308;2022-08-02T10:36:40;7.20;;;1.85;;
41480;SDS011;27217;51.220;5.308;2022-08-02T10:39:07;2.13;;;1.80;;
41480;SDS011;27217;51.220;5.308;2022-08-02T10:41:40;2.75;;;1.90;;
41480;SDS011;27217;51.220;5.308;2022-08-02T10:44:18;4.78;;;1.70;;
41480;SDS011;27217;51.220;5.308;2022-08-02T10:46:46;4.50;;;1.60;;
41480;SDS011;27217;51.220;5.308;2022-08-02T10:49:15;2.58;;;1.40;;
41480;SDS011;27217;51.220;5.308;2022-08-02T10:51:54;3.72;;;2.28;;
41480;SDS011;27217;51.220;5.308;2022-08-02T10:54:21;2.05;;;1.40;;
41480;SDS011;27217;51.220;5.308;2022-08-02T10:56:53;6.38;;;1.58;;
41480;SDS011;27217;51.220;5.308;2022-08-02T10:59:33;6.97;;;1.98;;
41480;SDS011;27217;51.220;5.308;2022-08-02T11:02:06;2.92;;;1.50;;
41480;SDS011;27217;51.220;5.308;2022-08-02T11:07:08;3.13;;;1.20;;
41480;SDS011;27217;51.220;5.308;2022-08-02T11:09:35;2.17;;;1.48;;
41480;SDS011;27217;51.220;5.308;2022-08-02T11:12:05;1.58;;;1.33;;
41480;SDS011;27217;51.220;5.308;2022-08-02T11:14:33;2.65;;;1.60;;
41480;SDS011;27217;51.220;5.308;2022-08-02T11:17:03;3.40;;;1.40;;
41480;SDS011;27217;51.220;5.308;2022-08-02T11:19:30;1.13;;;0.90;;
41480;SDS011;27217;51.220;5.308;2022-08-02T11:21:59;4.00;;;1.30;;
41480;SDS011;27217;51.220;5.308;2022-08-02T11:24:29;5.53;;;1.40;;
41480;SDS011;27217;51.220;5.308;2022-08-02T11:29:37;2.20;;;1.27;;
41480;SDS011;27217;51.220;5.308;2022-08-02T11:32:14;6.65;;;1.48;;
41480;SDS011;27217;51.220;5.308;2022-08-02T11:34:47;4.80;;;1.13;;
41480;SDS011;27217;51.220;5.308;2022-08-02T11:37:28;2.17;;;1.23;;
41480;SDS011;27217;51.220;5.308;2022-08-02T11:39:54;2.22;;;1.48;;
41480;SDS011;27217;51.220;5.308;2022-08-02T11:42:21;3.63;;;1.23;;
41480;SDS011;27217;51.220;5.308;2022-08-02T11:44:55;3.17;;;1.35;;
41480;SDS011;27217;51.220;5.308;2022-08-02T11:47:21;1.58;;;1.20;;
41480;SDS011;27217;51.220;5.308;2022-08-02T11:49:47;2.53;;;1.55;;
41480;SDS011;27217;51.220;5.308;2022-08-02T11:52:13;1.30;;;1.30;;
41480;SDS011;27217;51.220;5.308;2022-08-02T11:54:41;1.42;;;0.93;;
41480;SDS011;27217;51.220;5.308;2022-08-02T11:59:38;3.85;;;1.40;;
41480;SDS011;27217;51.220;5.308;2022-08-02T12:02:06;1.20;;;0.65;;
41480;SDS011;27217;51.220;5.308;2022-08-02T12:04:33;1.30;;;1.20;;
41480;SDS011;27217;51.220;5.308;2022-08-02T12:06:59;2.08;;;1.15;;
41480;SDS011;27217;51.220;5.308;2022-08-02T12:09:29;1.63;;;1.42;;
41480;SDS011;27217;51.220;5.308;2022-08-02T12:11:57;4.35;;;1.08;;
41480;SDS011;27217;51.220;5.308;2022-08-02T12:14:25;2.47;;;1.20;;
41480;SDS011;27217;51.220;5.308;2022-08-02T12:16:52;1.85;;;1.27;;
41480;SDS011;27217;51.220;5.308;2022-08-02T12:19:37;1.20;;;1.10;;
41480;SDS011;27217;51.220;5.308;2022-08-02T12:24:44;3.13;;;1.00;;
41480;SDS011;27217;51.220;5.308;2022-08-02T12:27:27;3.80;;;1.00;;
41480;SDS011;27217;51.220;5.308;2022-08-02T12:30:03;0.85;;;0.85;;
41480;SDS011;27217;51.220;5.308;2022-08-02T12:32:30;2.75;;;0.95;;
41480;SDS011;27217;51.220;5.308;2022-08-02T12:34:59;2.70;;;0.90;;
41480;SDS011;27217;51.220;5.308;2022-08-02T12:37:27;2.92;;;0.98;;
41480;SDS011;27217;51.220;5.308;2022-08-02T12:39:52;1.65;;;0.90;;
41480;SDS011;27217;51.220;5.308;2022-08-02T12:42:18;1.00;;;0.80;;
41480;SDS011;27217;51.220;5.308;2022-08-02T12:44:51;1.15;;;0.70;;
41480;SDS011;27217;51.220;5.308;2022-08-02T12:47:18;2.60;;;1.10;;
41480;SDS011;27217;51.220;5.308;2022-08-02T12:49:45;1.73;;;1.08;;
41480;SDS011;27217;51.220;5.308;2022-08-02T12:52:19;5.55;;;1.00;;
41480;SDS011;27217;51.220;5.308;2022-08-02T12:54:47;3.33;;;1.00;;
41480;SDS011;27217;51.220;5.308;2022-08-02T12:57:14;1.38;;;0.90;;
41480;SDS011;27217;51.220;5.308;2022-08-02T12:59:42;1.60;;;0.90;;
41480;SDS011;27217;51.220;5.308;2022-08-02T13:02:14;2.70;;;1.20;;
41480;SDS011;27217;51.220;5.308;2022-08-02T13:04:40;1.20;;;0.98;;
41480;SDS011;27217;51.220;5.308;2022-08-02T13:07:07;1.25;;;0.80;;
41480;SDS011;27217;51.220;5.308;2022-08-02T13:09:34;3.10;;;1.00;;
41480;SDS011;27217;51.220;5.308;2022-08-02T13:12:02;1.15;;;0.80;;
41480;SDS011;27217;51.220;5.308;2022-08-02T13:14:29;3.00;;;1.00;;
41480;SDS011;27217;51.220;5.308;2022-08-02T13:16:55;3.75;;;1.08;;
41480;SDS011;27217;51.220;5.308;2022-08-02T13:19:21;1.55;;;0.85;;
41480;SDS011;27217;51.220;5.308;2022-08-02T13:21:47;1.00;;;0.85;;
41480;SDS011;27217;51.220;5.308;2022-08-02T13:24:14;3.95;;;1.10;;
41480;SDS011;27217;51.220;5.308;2022-08-02T13:26:43;4.38;;;1.15;;
41480;SDS011;27217;51.220;5.308;2022-08-02T13:29:10;4.47;;;1.10;;
41480;SDS011;27217;51.220;5.308;2022-08-02T13:31:37;4.80;;;0.70;;
41480;SDS011;27217;51.220;5.308;2022-08-02T13:34:04;1.48;;;0.82;;
41480;SDS011;27217;51.220;5.308;2022-08-02T13:36:31;0.80;;;0.80;;
41480;SDS011;27217;51.220;5.308;2022-08-02T13:38:59;3.85;;;0.90;;
41480;SDS011;27217;51.220;5.308;2022-08-02T13:41:25;6.28;;;1.00;;
41480;SDS011;27217;51.220;5.308;2022-08-02T13:43:50;1.38;;;0.95;;
41480;SDS011;27217;51.220;5.308;2022-08-02T13:46:17;7.07;;;1.00;;
41480;SDS011;27217;51.220;5.308;2022-08-02T13:48:43;1.42;;;1.00;;
41480;SDS011;27217;51.220;5.308;2022-08-02T13:51:09;4.60;;;1.38;;
41480;SDS011;27217;51.220;5.308;2022-08-02T13:53:37;1.83;;;0.95;;
41480;SDS011;27217;51.220;5.308;2022-08-02T13:56:04;0.82;;;0.75;;
41480;SDS011;27217;51.220;5.308;2022-08-02T13:58:29;0.93;;;0.80;;
41480;SDS011;27217;51.220;5.308;2022-08-02T14:00:55;5.38;;;1.00;;
41480;SDS011;27217;51.220;5.308;2022-08-02T14:03:21;2.85;;;0.93;;
41480;SDS011;27217;51.220;5.308;2022-08-02T14:05:50;4.57;;;0.80;;
41480;SDS011;27217;51.220;5.308;2022-08-02T14:08:16;3.83;;;0.90;;
41480;SDS011;27217;51.220;5.308;2022-08-02T14:10:48;8.07;;;0.85;;
41480;SDS011;27217;51.220;5.308;2022-08-02T14:13:15;4.60;;;0.88;;
41480;SDS011;27217;51.220;5.308;2022-08-02T14:15:41;2.75;;;0.77;;
41480;SDS011;27217;51.220;5.308;2022-08-02T14:18:07;3.90;;;1.05;;
41480;SDS011;27217;51.220;5.308;2022-08-02T14:20:34;8.90;;;1.17;;
41480;SDS011;27217;51.220;5.308;2022-08-02T14:22:59;3.60;;;0.80;;
41480;SDS011;27217;51.220;5.308;2022-08-02T14:25:25;7.05;;;1.15;;
41480;SDS011;27217;51.220;5.308;2022-08-02T14:27:52;1.88;;;1.25;;
41480;SDS011;27217;51.220;5.308;2022-08-02T14:30:17;2.30;;;1.08;;
41480;SDS011;27217;51.220;5.308;2022-08-02T14:32:43;1.13;;;0.90;;
41480;SDS011;27217;51.220;5.308;2022-08-02T14:35:09;0.73;;;0.73;;
41480;SDS011;27217;51.220;5.308;2022-08-02T14:37:35;2.10;;;0.73;;
41480;SDS011;27217;51.220;5.308;2022-08-02T14:40:00;7.20;;;1.00;;
41480;SDS011;27217;51.220;5.308;2022-08-02T14:42:26;1.90;;;0.93;;
41480;SDS011;27217;51.220;5.308;2022-08-02T14:44:52;5.88;;;1.15;;
41480;SDS011;27217;51.220;5.308;2022-08-02T14:47:18;2.75;;;0.90;;
41480;SDS011;27217;51.220;5.308;2022-08-02T14:49:44;2.50;;;1.00;;
41480;SDS011;27217;51.220;5.308;2022-08-02T14:52:10;3.90;;;0.60;;
41480;SDS011;27217;51.220;5.308;2022-08-02T14:54:38;2.50;;;1.30;;
41480;SDS011;27217;51.220;5.308;2022-08-02T14:57:05;5.55;;;1.20;;
41480;SDS011;27217;51.220;5.308;2022-08-02T14:59:31;2.75;;;0.70;;
41480;SDS011;27217;51.220;5.308;2022-08-02T15:01:57;3.97;;;0.90;;
41480;SDS011;27217;51.220;5.308;2022-08-02T15:04:24;6.25;;;1.13;;
41480;SDS011;27217;51.220;5.308;2022-08-02T15:06:50;1.98;;;0.80;;
41480;SDS011;27217;51.220;5.308;2022-08-02T15:09:16;3.17;;;0.95;;
41480;SDS011;27217;51.220;5.308;2022-08-02T15:11:43;4.00;;;0.85;;
41480;SDS011;27217;51.220;5.308;2022-08-02T15:14:08;4.32;;;1.00;;
41480;SDS011;27217;51.220;5.308;2022-08-02T15:16:34;2.20;;;0.90;;
41480;SDS011;27217;51.220;5.308;2022-08-02T15:19:02;3.63;;;1.27;;
41480;SDS011;27217;51.220;5.308;2022-08-02T15:21:29;3.92;;;1.00;;
41480;SDS011;27217;51.220;5.308;2022-08-02T15:23:55;3.38;;;0.88;;
41480;SDS011;27217;51.220;5.308;2022-08-02T15:26:21;4.20;;;0.98;;
41480;SDS011;27217;51.220;5.308;2022-08-02T15:28:47;2.22;;;1.00;;